Time;durP1;ratioP1;P1;durP2;ratioP2;P2;SDS_P1;SDS_P2;PMS_P1;PMS_P2;Temp;Humidity;BMP_temperature;BMP_pressure;BME280_temperature;BME280_humidity;BME280_pressure;Samples;Min_cycle;Max_cycle;Signal;HPM_P1;HPM_P2
2021/01/20 05:47:17;;;;;;;17.75;9.80;;;;;;;;;;6255364;22;884421;-81
2021/01/20 05:49:42;;;;;;;16.15;8.68;;;;;;;;;;6301020;22;20021;-81
2021/01/20 05:52:14;;;;;;;11.13;6.07;;;;;;;;;;6325725;22;20341;-82
2021/01/20 05:54:41;;;;;;;6.88;4.32;;;;;;;;;;6324295;22;19991;-81
2021/01/20 05:57:16;;;;;;;4.70;2.58;;;;;;;;;;6272134;22;19995;-82
2021/01/20 05:59:43;;;;;;;8.05;3.35;;;;;;;;;;6265030;22;19999;-81
2021/01/20 06:02:09;;;;;;;8.75;3.70;;;;;;;;;;6291141;22;20023;-82
2021/01/20 06:04:36;;;;;;;11.68;4.30;;;;;;;;;;6289829;22;20006;-82
2021/01/20 06:09:20;;;;;;;6.28;2.80;;;;;;;;;;5094671;27;20364;-82
2021/01/20 06:11:47;;;;;;;7.03;2.80;;;;;;;;;;5101171;28;20032;-83
2021/01/20 06:14:12;;;;;;;6.45;1.98;;;;;;;;;;5109501;28;20035;-82
2021/01/20 06:16:41;;;;;;;7.22;3.25;;;;;;;;;;5084489;28;20032;-82
2021/01/20 06:19:08;;;;;;;6.78;2.80;;;;;;;;;;5086001;28;20054;-82
2021/01/20 06:21:35;;;;;;;5.85;2.95;;;;;;;;;;5110380;28;20025;-82
2021/01/20 06:24:03;;;;;;;6.40;2.25;;;;;;;;;;5111424;28;20055;-82
2021/01/20 06:26:29;;;;;;;7.70;2.70;;;;;;;;;;5109108;28;20029;-82
2021/01/20 06:28:56;;;;;;;6.70;2.55;;;;;;;;;;5096964;28;20024;-82
2021/01/20 06:31:22;;;;;;;14.80;5.70;;;;;;;;;;5068907;28;20039;-82
2021/01/20 06:33:47;;;;;;;13.60;6.55;;;;;;;;;;5110095;28;20369;-82
2021/01/20 06:36:32;;;;;;;8.77;4.97;;;;;;;;;;5094380;28;20059;-82
2021/01/20 06:38:58;;;;;;;5.80;3.42;;;;;;;;;;5078137;28;20027;-82
2021/01/20 06:41:37;;;;;;;7.43;3.42;;;;;;;;;;5108525;28;20032;-82
2021/01/20 06:44:09;;;;;;;12.57;4.15;;;;;;;;;;5082730;28;20028;-82
2021/01/20 06:46:35;;;;;;;14.13;5.90;;;;;;;;;;5100437;28;20034;-82
2021/01/20 06:49:01;;;;;;;11.77;5.80;;;;;;;;;;5091517;28;20032;-82
2021/01/20 06:51:27;;;;;;;13.60;6.50;;;;;;;;;;5101143;28;20051;-82
2021/01/20 06:54:00;;;;;;;19.40;9.07;;;;;;;;;;5077189;28;20032;-82
2021/01/20 06:56:33;;;;;;;47.63;19.27;;;;;;;;;;5080904;28;20029;-82
2021/01/20 06:59:19;;;;;;;26.02;11.30;;;;;;;;;;5063650;28;20081;-82
2021/01/20 07:02:11;;;;;;;21.90;9.65;;;;;;;;;;5079424;28;20040;-82
2021/01/20 07:04:37;;;;;;;17.48;8.18;;;;;;;;;;5070807;28;20404;-82
2021/01/20 07:07:13;;;;;;;14.85;6.95;;;;;;;;;;5088542;28;20024;-82
2021/01/20 07:09:51;;;;;;;12.45;6.65;;;;;;;;;;5087629;28;20399;-82
2021/01/20 07:12:17;;;;;;;12.23;6.63;;;;;;;;;;5096096;28;20028;-82
2021/01/20 07:14:43;;;;;;;10.68;4.75;;;;;;;;;;5098155;28;20028;-82
2021/01/20 07:17:10;;;;;;;8.32;4.38;;;;;;;;;;5083670;28;20081;-82
2021/01/20 07:19:37;;;;;;;9.50;5.18;;;;;;;;;;5074969;28;20067;-82
2021/01/20 07:22:04;;;;;;;7.95;3.72;;;;;;;;;;5071129;28;20514;-82
2021/01/20 07:24:29;;;;;;;8.65;3.90;;;;;;;;;;5091519;28;20036;-82
2021/01/20 07:26:55;;;;;;;9.05;4.40;;;;;;;;;;5062887;28;20411;-81
2021/01/20 07:29:27;;;;;;;10.43;4.45;;;;;;;;;;5095651;28;20031;-82
2021/01/20 07:31:53;;;;;;;8.82;4.45;;;;;;;;;;5075209;28;20035;-82
2021/01/20 07:34:19;;;;;;;9.02;4.65;;;;;;;;;;5087411;28;20541;-82
2021/01/20 07:36:45;;;;;;;7.35;3.90;;;;;;;;;;5063544;28;20060;-82
2021/01/20 07:39:23;;;;;;;10.00;4.80;;;;;;;;;;5075303;28;20031;-82
2021/01/20 07:41:53;;;;;;;6.70;3.20;;;;;;;;;;5085740;28;20051;-82
2021/01/20 07:44:19;;;;;;;8.18;3.67;;;;;;;;;;5070469;28;20024;-82
2021/01/20 07:46:44;;;;;;;6.20;3.10;;;;;;;;;;5064160;28;20040;-82
2021/01/20 07:49:13;;;;;;;7.03;3.47;;;;;;;;;;5058868;28;20028;-82
2021/01/20 07:51:39;;;;;;;8.10;4.38;;;;;;;;;;5060506;28;20047;-82
2021/01/20 07:54:05;;;;;;;11.95;5.22;;;;;;;;;;5084587;28;20476;-83
2021/01/20 07:56:32;;;;;;;9.35;4.65;;;;;;;;;;5060132;28;20086;-81
2021/01/20 07:59:13;;;;;;;11.45;6.65;;;;;;;;;;5068163;28;20028;-80
2021/01/20 08:01:39;;;;;;;12.93;7.72;;;;;;;;;;5067560;28;20028;-81
2021/01/20 08:04:16;;;;;;;12.07;6.65;;;;;;;;;;5062637;28;20096;-81
2021/01/20 08:09:01;;;;;;;10.85;5.35;;;;;;;;;;5082816;27;20386;-81
2021/01/20 08:11:30;;;;;;;11.15;6.25;;;;;;;;;;5085739;28;20020;-80
2021/01/20 08:13:56;;;;;;;9.55;5.30;;;;;;;;;;5067437;28;20028;-81
2021/01/20 08:16:22;;;;;;;9.70;5.20;;;;;;;;;;5075689;28;20935;-80
2021/01/20 08:18:48;;;;;;;8.73;4.45;;;;;;;;;;5052932;28;19917;-81
2021/01/20 08:21:14;;;;;;;11.30;5.68;;;;;;;;;;5063330;28;20408;-81
2021/01/20 08:23:48;;;;;;;11.63;5.63;;;;;;;;;;5066932;28;20025;-81
2021/01/20 08:26:14;;;;;;;11.38;5.70;;;;;;;;;;5067295;28;20020;-81
2021/01/20 08:29:00;;;;;;;9.52;4.53;;;;;;;;;;5064002;28;20507;-81
2021/01/20 08:31:25;;;;;;;8.25;4.38;;;;;;;;;;5049956;28;20072;-81
2021/01/20 08:34:11;;;;;;;8.45;4.88;;;;;;;;;;5062855;28;20029;-80
2021/01/20 08:36:37;;;;;;;11.02;5.43;;;;;;;;;;5067733;28;20029;-81
2021/01/20 08:39:06;;;;;;;9.10;5.15;;;;;;;;;;5066347;28;20108;-82
2021/01/20 08:41:32;;;;;;;14.60;6.32;;;;;;;;;;5050292;28;20055;-81
2021/01/20 08:44:14;;;;;;;10.05;5.85;;;;;;;;;;5065067;28;20036;-80
2021/01/20 08:46:40;;;;;;;10.68;6.38;;;;;;;;;;5049105;28;20029;-79
2021/01/20 08:49:06;;;;;;;9.85;6.05;;;;;;;;;;5065796;28;20025;-81
2021/01/20 08:51:31;;;;;;;12.73;6.80;;;;;;;;;;5042649;28;20170;-81
2021/01/20 08:54:09;;;;;;;10.45;6.25;;;;;;;;;;5050974;28;20025;-81
2021/01/20 08:56:34;;;;;;;12.05;5.78;;;;;;;;;;5047785;28;20037;-82
2021/01/20 08:59:00;;;;;;;14.63;7.53;;;;;;;;;;5069564;28;20125;-82
2021/01/20 09:01:29;;;;;;;15.05;7.75;;;;;;;;;;5041638;28;20100;-82
2021/01/20 09:03:59;;;;;;;14.77;8.25;;;;;;;;;;5062245;28;20033;-81
2021/01/20 09:06:26;;;;;;;19.08;11.32;;;;;;;;;;5043927;28;20040;-82
2021/01/20 09:08:51;;;;;;;20.45;11.70;;;;;;;;;;5044989;28;20040;-82
2021/01/20 09:11:17;;;;;;;21.20;11.27;;;;;;;;;;5063655;28;20033;-82
2021/01/20 09:13:44;;;;;;;20.30;10.80;;;;;;;;;;5047530;28;20052;-82
2021/01/20 09:16:10;;;;;;;18.00;10.20;;;;;;;;;;5069063;28;20021;-82
2021/01/20 09:18:36;;;;;;;17.52;11.52;;;;;;;;;;5061811;28;20084;-82
2021/01/20 09:21:01;;;;;;;19.40;12.07;;;;;;;;;;5055857;28;20017;-82
2021/01/20 09:23:27;;;;;;;17.83;10.95;;;;;;;;;;5051983;28;20033;-82
2021/01/20 09:28:12;;;;;;;22.92;12.30;;;;;;;;;;5108165;27;20896;-83
2021/01/20 09:30:38;;;;;;;18.63;10.93;;;;;;;;;;5097420;28;20032;-83
2021/01/20 09:33:04;;;;;;;17.45;11.60;;;;;;;;;;5093982;28;20027;-83
2021/01/20 09:35:29;;;;;;;18.45;12.27;;;;;;;;;;5090656;28;20052;-83
2021/01/20 09:37:55;;;;;;;18.02;12.88;;;;;;;;;;5097092;28;20106;-83
2021/01/20 09:40:22;;;;;;;24.80;13.57;;;;;;;;;;5096325;28;20020;-82
2021/01/20 09:42:47;;;;;;;22.15;14.23;;;;;;;;;;5097792;28;20073;-83
2021/01/20 09:45:14;;;;;;;20.48;13.35;;;;;;;;;;5093789;28;20024;-83
2021/01/20 09:47:40;;;;;;;20.85;13.05;;;;;;;;;;5097665;28;20519;-83
2021/01/20 09:50:07;;;;;;;28.33;15.70;;;;;;;;;;5092868;28;20104;-83
2021/01/20 09:52:32;;;;;;;23.33;14.52;;;;;;;;;;5080597;28;20387;-83
2021/01/20 09:54:58;;;;;;;28.13;17.45;;;;;;;;;;5089528;28;21491;-82
2021/01/20 09:57:24;;;;;;;32.20;17.70;;;;;;;;;;5092691;28;20028;-82
2021/01/20 09:59:50;;;;;;;35.70;22.45;;;;;;;;;;5096227;28;20024;-83
2021/01/20 10:02:16;;;;;;;33.72;21.08;;;;;;;;;;5089867;28;20031;-83
2021/01/20 10:04:42;;;;;;;27.77;17.75;;;;;;;;;;5092292;28;21401;-83
2021/01/20 10:07:08;;;;;;;33.50;23.40;;;;;;;;;;5089943;28;20139;-83
2021/01/20 10:09:34;;;;;;;37.67;23.80;;;;;;;;;;5093523;28;20012;-83
2021/01/20 10:14:19;;;;;;;34.05;22.42;;;;;;;;;;5075688;28;20357;-81
2021/01/20 10:16:46;;;;;;;42.13;24.83;;;;;;;;;;5061027;28;20039;-82
2021/01/20 10:19:15;;;;;;;41.42;25.83;;;;;;;;;;5062591;28;20139;-82
2021/01/20 10:21:41;;;;;;;42.50;25.40;;;;;;;;;;5039798;28;20021;-82
2021/01/20 10:24:07;;;;;;;32.10;21.67;;;;;;;;;;5062867;28;20103;-82
2021/01/20 10:26:33;;;;;;;63.63;35.10;;;;;;;;;;5073091;28;20024;-82
2021/01/20 10:28:58;;;;;;;45.63;27.88;;;;;;;;;;5069448;28;20099;-82
2021/01/20 10:31:28;;;;;;;55.47;30.10;;;;;;;;;;5048613;28;20112;-82
2021/01/20 10:33:53;;;;;;;61.97;30.50;;;;;;;;;;5040082;28;20047;-82
2021/01/20 10:36:19;;;;;;;38.40;23.25;;;;;;;;;;5058646;28;20077;-82
2021/01/20 10:38:45;;;;;;;49.15;28.60;;;;;;;;;;5070489;28;20044;-82
2021/01/20 10:41:10;;;;;;;30.73;19.70;;;;;;;;;;5051622;28;20035;-82
2021/01/20 10:43:38;;;;;;;30.52;17.63;;;;;;;;;;5062780;28;20108;-82
2021/01/20 10:46:03;;;;;;;29.13;16.98;;;;;;;;;;5069223;28;20063;-82
2021/01/20 10:48:29;;;;;;;24.58;16.02;;;;;;;;;;5055655;28;20103;-81
2021/01/20 10:50:55;;;;;;;33.58;18.67;;;;;;;;;;5055077;28;20028;-82
2021/01/20 10:53:20;;;;;;;30.42;17.58;;;;;;;;;;5052900;28;20103;-82
2021/01/20 10:55:47;;;;;;;32.72;20.58;;;;;;;;;;5063111;28;20107;-82
2021/01/20 10:58:13;;;;;;;29.80;18.75;;;;;;;;;;5064746;28;20099;-82
2021/01/20 11:00:39;;;;;;;32.08;19.95;;;;;;;;;;5053519;28;20508;-82
2021/01/20 11:03:04;;;;;;;38.13;23.45;;;;;;;;;;5075692;28;20056;-82
2021/01/20 11:05:30;;;;;;;33.63;21.05;;;;;;;;;;5072232;28;20025;-82
2021/01/20 11:07:56;;;;;;;77.35;41.10;;;;;;;;;;5070633;28;19948;-82
2021/01/20 11:10:21;;;;;;;68.80;39.60;;;;;;;;;;5064373;28;20058;-82
2021/01/20 11:12:48;;;;;;;70.45;41.85;;;;;;;;;;5067907;28;20016;-82
2021/01/20 11:15:14;;;;;;;69.25;40.70;;;;;;;;;;5066942;28;20505;-82
2021/01/20 11:17:39;;;;;;;60.00;35.45;;;;;;;;;;5073475;28;20025;-82
2021/01/20 11:20:05;;;;;;;60.67;35.95;;;;;;;;;;5064536;28;20036;-82
2021/01/20 11:22:32;;;;;;;61.97;36.17;;;;;;;;;;5053585;28;20025;-82
2021/01/20 11:25:00;;;;;;;66.20;38.70;;;;;;;;;;5037408;28;20093;-82
2021/01/20 11:27:27;;;;;;;64.90;38.50;;;;;;;;;;5051637;28;20039;-82
2021/01/20 11:29:53;;;;;;;71.88;41.78;;;;;;;;;;5057969;28;20025;-82
2021/01/20 11:32:18;;;;;;;66.97;35.08;;;;;;;;;;5059344;28;20366;-82
2021/01/20 11:34:44;;;;;;;55.20;33.53;;;;;;;;;;5054291;28;20093;-83
2021/01/20 11:37:10;;;;;;;52.08;31.27;;;;;;;;;;5053291;28;20049;-83
2021/01/20 11:39:36;;;;;;;48.00;28.60;;;;;;;;;;5056447;28;20124;-83
2021/01/20 11:42:02;;;;;;;48.88;28.52;;;;;;;;;;5057346;28;20024;-83
2021/01/20 11:44:27;;;;;;;48.05;29.98;;;;;;;;;;5043235;28;20028;-81
2021/01/20 11:46:53;;;;;;;44.50;28.08;;;;;;;;;;5052129;28;20086;-83
2021/01/20 11:49:19;;;;;;;41.90;26.25;;;;;;;;;;5027602;28;19997;-83
2021/01/20 11:51:45;;;;;;;38.72;24.25;;;;;;;;;;5042911;28;20028;-84
2021/01/20 11:54:10;;;;;;;29.02;20.08;;;;;;;;;;5047133;28;20132;-83
2021/01/20 11:58:55;;;;;;;16.42;8.52;;;;;;;;;;5100593;27;20450;-83
2021/01/20 12:01:22;;;;;;;8.55;5.78;;;;;;;;;;5084886;28;20521;-83
2021/01/20 12:03:48;;;;;;;11.90;7.15;;;;;;;;;;5082148;28;20040;-83
2021/01/20 12:06:13;;;;;;;8.30;5.20;;;;;;;;;;5082742;28;20020;-84
2021/01/20 12:08:39;;;;;;;11.55;7.82;;;;;;;;;;5081139;28;20103;-83
2021/01/20 12:11:04;;;;;;;12.93;8.02;;;;;;;;;;5080605;28;20104;-84
2021/01/20 12:13:30;;;;;;;14.20;7.18;;;;;;;;;;5081065;28;20116;-83
2021/01/20 12:15:56;;;;;;;8.77;5.32;;;;;;;;;;5076112;28;20100;-84
2021/01/20 12:18:21;;;;;;;10.40;5.20;;;;;;;;;;5067074;28;20050;-84
2021/01/20 12:20:47;;;;;;;12.20;6.97;;;;;;;;;;5075980;28;20123;-82
2021/01/20 12:23:13;;;;;;;11.20;6.65;;;;;;;;;;5082563;28;20214;-83
2021/01/20 12:25:38;;;;;;;8.65;5.22;;;;;;;;;;5069555;28;20023;-82
2021/01/20 12:28:04;;;;;;;13.07;6.57;;;;;;;;;;5072361;28;20116;-83
2021/01/20 12:30:30;;;;;;;8.77;3.90;;;;;;;;;;5074805;28;20035;-83
2021/01/20 12:32:55;;;;;;;9.48;4.80;;;;;;;;;;5078313;28;20030;-83
2021/01/20 12:35:21;;;;;;;7.57;3.35;;;;;;;;;;5071805;28;20108;-82
2021/01/20 12:37:47;;;;;;;6.28;3.75;;;;;;;;;;5072707;28;20044;-82
2021/01/20 12:40:12;;;;;;;7.90;3.30;;;;;;;;;;5073023;28;20107;-82
2021/01/20 12:42:38;;;;;;;8.38;3.28;;;;;;;;;;5076832;28;20024;-83
2021/01/20 12:45:04;;;;;;;5.40;2.53;;;;;;;;;;5075071;28;20748;-83
2021/01/20 12:47:30;;;;;;;6.57;2.55;;;;;;;;;;5072930;28;20024;-83
2021/01/20 12:49:55;;;;;;;6.85;2.97;;;;;;;;;;5078100;28;20115;-83
2021/01/20 12:52:21;;;;;;;5.70;2.92;;;;;;;;;;5069107;28;20117;-82
2021/01/20 12:54:47;;;;;;;8.07;4.22;;;;;;;;;;5074953;28;20454;-83
2021/01/20 12:57:12;;;;;;;13.07;9.73;;;;;;;;;;5071381;28;20415;-81
2021/01/20 12:59:38;;;;;;;17.27;10.32;;;;;;;;;;5076970;28;20035;-81
2021/01/20 13:02:04;;;;;;;12.30;6.43;;;;;;;;;;5074861;28;20028;-82
2021/01/20 13:04:30;;;;;;;10.55;5.65;;;;;;;;;;5077626;28;20696;-82
2021/01/20 13:06:56;;;;;;;7.30;3.95;;;;;;;;;;5072462;28;20487;-82
2021/01/20 13:09:21;;;;;;;12.38;6.18;;;;;;;;;;5064042;28;20032;-82
2021/01/20 13:11:47;;;;;;;9.13;5.82;;;;;;;;;;5069365;28;20405;-83
2021/01/20 13:14:13;;;;;;;9.40;5.53;;;;;;;;;;5058244;28;20117;-82
2021/01/20 13:16:48;;;;;;;7.65;3.35;;;;;;;;;;5067288;28;20028;-81
2021/01/20 13:19:13;;;;;;;6.30;3.03;;;;;;;;;;5059059;28;20075;-83
2021/01/20 13:21:39;;;;;;;9.90;4.28;;;;;;;;;;5061454;28;20460;-82
2021/01/20 13:24:05;;;;;;;6.57;3.92;;;;;;;;;;5068444;28;20044;-83
2021/01/20 13:26:31;;;;;;;8.95;4.40;;;;;;;;;;5052810;28;20028;-82
2021/01/20 13:28:58;;;;;;;9.60;4.38;;;;;;;;;;5067256;28;20024;-82
2021/01/20 13:31:24;;;;;;;5.25;2.85;;;;;;;;;;5062809;28;20434;-82
2021/01/20 13:33:49;;;;;;;10.93;5.30;;;;;;;;;;5056118;28;20024;-82
2021/01/20 13:36:15;;;;;;;9.23;5.05;;;;;;;;;;5061156;28;20031;-82
2021/01/20 13:38:41;;;;;;;9.80;5.22;;;;;;;;;;5065670;28;20016;-81
2021/01/20 13:41:06;;;;;;;9.68;4.78;;;;;;;;;;5059320;28;20115;-83
2021/01/20 13:43:32;;;;;;;6.18;3.72;;;;;;;;;;5063773;28;20038;-82
2021/01/20 13:45:58;;;;;;;7.78;5.88;;;;;;;;;;5066170;28;20020;-82
2021/01/20 13:48:24;;;;;;;12.45;6.78;;;;;;;;;;5070151;28;20086;-82
2021/01/20 13:53:08;;;;;;;9.00;5.60;;;;;;;;;;5094715;27;20446;-82
2021/01/20 13:57:52;;;;;;;6.47;4.05;;;;;;;;;;5104695;27;20408;-82
2021/01/20 14:00:18;;;;;;;6.88;4.18;;;;;;;;;;5091846;28;20028;-83
2021/01/20 14:02:43;;;;;;;9.65;4.22;;;;;;;;;;5088285;28;20663;-82
2021/01/20 14:05:09;;;;;;;8.95;5.53;;;;;;;;;;5083449;28;20503;-83
2021/01/20 14:07:35;;;;;;;11.32;6.68;;;;;;;;;;5087353;28;20039;-82
2021/01/20 14:10:01;;;;;;;10.45;5.00;;;;;;;;;;5088648;28;20413;-81
2021/01/20 14:12:26;;;;;;;8.32;4.45;;;;;;;;;;5082953;28;20107;-81
2021/01/20 14:14:52;;;;;;;8.75;3.85;;;;;;;;;;5088406;28;20016;-81
2021/01/20 14:17:18;;;;;;;6.32;3.30;;;;;;;;;;5083310;28;20053;-82
2021/01/20 14:19:44;;;;;;;6.10;2.67;;;;;;;;;;5088155;28;20028;-83
2021/01/20 14:22:10;;;;;;;4.68;2.25;;;;;;;;;;5086747;28;20096;-82
2021/01/20 14:24:35;;;;;;;5.65;2.10;;;;;;;;;;5084925;28;20514;-83
2021/01/20 14:27:03;;;;;;;7.60;2.55;;;;;;;;;;5085230;28;20139;-82
2021/01/20 14:29:29;;;;;;;4.32;2.10;;;;;;;;;;5084747;28;20408;-82
2021/01/20 14:31:54;;;;;;;5.40;3.03;;;;;;;;;;5085856;28;20031;-82
2021/01/20 14:34:26;;;;;;;5.63;2.35;;;;;;;;;;5086943;28;20017;-82
2021/01/20 14:36:52;;;;;;;5.07;2.47;;;;;;;;;;5086001;28;20029;-82
2021/01/20 14:39:18;;;;;;;5.50;2.03;;;;;;;;;;5086375;28;20488;-83
2021/01/20 14:41:44;;;;;;;4.00;2.03;;;;;;;;;;5085021;28;20036;-82
2021/01/20 14:44:10;;;;;;;4.55;2.13;;;;;;;;;;5082100;28;20015;-82
2021/01/20 14:46:36;;;;;;;4.72;1.95;;;;;;;;;;5075124;28;20658;-81
2021/01/20 15:01:44;;;;;;;4.40;2.40;;;;;;;;;;5136403;27;20915;-83
2021/01/20 15:04:10;;;;;;;5.13;2.42;;;;;;;;;;5138401;27;20039;-83
2021/01/20 15:06:36;;;;;;;6.10;2.55;;;;;;;;;;5139740;27;20026;-83
2021/01/20 15:09:01;;;;;;;3.50;2.22;;;;;;;;;;5141959;27;20528;-83
2021/01/20 15:11:27;;;;;;;4.20;2.20;;;;;;;;;;5133717;27;20031;-83
2021/01/20 15:13:53;;;;;;;10.65;5.28;;;;;;;;;;5136499;27;20122;-83
2021/01/20 15:16:19;;;;;;;5.43;2.15;;;;;;;;;;5138624;27;20062;-83
2021/01/20 15:18:44;;;;;;;5.38;2.60;;;;;;;;;;5131635;27;20019;-83
2021/01/20 15:21:10;;;;;;;4.00;1.70;;;;;;;;;;5124603;27;20027;-83
2021/01/20 15:23:36;;;;;;;5.05;2.60;;;;;;;;;;5131543;27;20051;-82
2021/01/20 15:26:02;;;;;;;5.38;2.70;;;;;;;;;;5130939;27;20114;-80
2021/01/20 15:28:28;;;;;;;4.75;1.95;;;;;;;;;;5128671;27;20062;-83
2021/01/20 15:30:57;;;;;;;5.72;1.90;;;;;;;;;;5134546;27;20496;-83
2021/01/20 15:33:23;;;;;;;3.05;1.58;;;;;;;;;;5135545;27;20031;-83
2021/01/20 15:35:49;;;;;;;7.30;3.20;;;;;;;;;;5149822;27;20019;-83
2021/01/20 15:38:16;;;;;;;5.55;2.45;;;;;;;;;;5141168;27;20020;-83
2021/01/20 15:43:01;;;;;;;5.25;2.38;;;;;;;;;;5087730;27;20490;-83
2021/01/20 15:45:27;;;;;;;3.95;1.83;;;;;;;;;;5071377;28;20034;-82
2021/01/20 15:47:53;;;;;;;3.78;1.98;;;;;;;;;;5057806;28;20119;-83
2021/01/20 15:50:18;;;;;;;5.10;2.15;;;;;;;;;;5068218;28;20358;-82
2021/01/20 15:52:44;;;;;;;4.30;2.30;;;;;;;;;;5077351;28;20082;-82
2021/01/20 15:55:10;;;;;;;3.80;1.90;;;;;;;;;;5079349;28;20072;-83
2021/01/20 15:57:36;;;;;;;3.90;1.55;;;;;;;;;;5077631;28;20112;-82
2021/01/20 16:00:03;;;;;;;5.90;2.08;;;;;;;;;;5077934;28;20023;-83
2021/01/20 16:02:28;;;;;;;5.35;2.53;;;;;;;;;;5076105;28;20024;-82
2021/01/20 16:04:54;;;;;;;4.28;2.20;;;;;;;;;;5058159;28;20115;-83
2021/01/20 16:07:20;;;;;;;3.80;2.00;;;;;;;;;;5075014;28;20111;-82
2021/01/20 16:09:45;;;;;;;3.75;1.73;;;;;;;;;;5059240;28;20029;-82
2021/01/20 16:12:11;;;;;;;6.60;1.90;;;;;;;;;;5062701;28;20399;-83
2021/01/20 16:14:37;;;;;;;4.25;1.73;;;;;;;;;;5050473;28;20036;-82
2021/01/20 16:17:03;;;;;;;3.45;1.90;;;;;;;;;;5076187;28;20036;-85
2021/01/20 16:19:29;;;;;;;3.72;1.50;;;;;;;;;;5045084;28;20104;-85
2021/01/20 16:21:54;;;;;;;4.30;2.00;;;;;;;;;;5043866;28;20032;-85
2021/01/20 16:24:20;;;;;;;5.18;2.00;;;;;;;;;;5061929;28;20024;-83
2021/01/20 16:26:46;;;;;;;3.90;1.77;;;;;;;;;;5070044;28;20107;-83
2021/01/20 16:29:11;;;;;;;4.40;2.20;;;;;;;;;;5069190;28;20100;-83
2021/01/20 16:31:37;;;;;;;4.80;1.48;;;;;;;;;;5062904;28;20092;-81
2021/01/20 16:34:03;;;;;;;3.65;1.70;;;;;;;;;;5067564;28;20112;-81
2021/01/20 16:36:28;;;;;;;4.85;1.80;;;;;;;;;;5067642;28;20107;-81
2021/01/20 16:38:54;;;;;;;2.80;1.58;;;;;;;;;;5053814;28;20060;-80
2021/01/20 16:41:19;;;;;;;4.93;1.98;;;;;;;;;;5088611;28;20025;-81
2021/01/20 16:43:45;;;;;;;3.70;1.70;;;;;;;;;;5093530;28;20045;-82
2021/01/20 16:46:11;;;;;;;3.70;1.90;;;;;;;;;;5096472;28;20044;-82
2021/01/20 16:48:36;;;;;;;5.53;2.63;;;;;;;;;;5086174;28;20634;-82
2021/01/20 16:51:02;;;;;;;4.93;1.92;;;;;;;;;;5080981;28;20517;-82
2021/01/20 16:53:28;;;;;;;3.90;1.95;;;;;;;;;;5054794;28;20021;-82
2021/01/20 16:55:53;;;;;;;5.80;2.30;;;;;;;;;;5063901;28;20044;-82
2021/01/20 16:58:19;;;;;;;5.30;2.35;;;;;;;;;;5069535;28;20017;-82
2021/01/20 17:00:44;;;;;;;4.72;1.90;;;;;;;;;;5081370;28;20051;-82
2021/01/20 17:03:10;;;;;;;4.10;2.45;;;;;;;;;;5058738;28;20059;-82
2021/01/20 17:05:37;;;;;;;5.13;2.63;;;;;;;;;;5064373;28;20048;-82
2021/01/20 17:08:03;;;;;;;5.85;2.97;;;;;;;;;;5044387;28;20027;-82
2021/01/20 17:10:29;;;;;;;4.65;2.40;;;;;;;;;;5049679;28;20025;-82
2021/01/20 17:12:54;;;;;;;5.78;2.75;;;;;;;;;;5063446;28;20035;-82
2021/01/20 17:15:22;;;;;;;9.45;3.53;;;;;;;;;;5076602;28;20094;-82
2021/01/20 17:17:47;;;;;;;6.25;3.17;;;;;;;;;;5065947;28;20056;-82
2021/01/20 17:20:15;;;;;;;8.13;3.83;;;;;;;;;;5079731;28;20028;-82
2021/01/20 17:22:41;;;;;;;6.68;3.33;;;;;;;;;;5064302;28;20389;-82
2021/01/20 17:25:06;;;;;;;9.20;4.97;;;;;;;;;;5060001;28;20078;-83
2021/01/20 17:27:32;;;;;;;7.55;4.40;;;;;;;;;;5055855;28;20028;-83
2021/01/20 17:29:58;;;;;;;10.18;5.93;;;;;;;;;;5049048;28;20127;-83
2021/01/20 17:32:24;;;;;;;50.17;20.08;;;;;;;;;;5043981;28;20029;-85
2021/01/20 17:34:49;;;;;;;37.83;20.08;;;;;;;;;;5053359;28;20484;-82
2021/01/20 17:37:15;;;;;;;24.85;15.25;;;;;;;;;;5055493;28;20025;-82
2021/01/20 17:39:41;;;;;;;32.90;18.50;;;;;;;;;;5065837;28;20033;-82
2021/01/20 17:42:10;;;;;;;48.90;25.63;;;;;;;;;;5064301;28;20030;-81
2021/01/20 17:44:36;;;;;;;30.15;16.52;;;;;;;;;;5065382;28;20019;-81
2021/01/20 17:47:02;;;;;;;30.08;18.02;;;;;;;;;;5066098;28;20107;-81
2021/01/20 17:49:27;;;;;;;26.83;16.13;;;;;;;;;;5039114;28;20025;-81
2021/01/20 17:51:53;;;;;;;24.20;15.45;;;;;;;;;;5059161;28;20119;-81
2021/01/20 17:54:19;;;;;;;39.78;22.88;;;;;;;;;;5057208;28;20036;-81
2021/01/20 17:56:45;;;;;;;47.90;28.40;;;;;;;;;;5058183;28;20029;-81
2021/01/20 17:59:10;;;;;;;42.47;26.38;;;;;;;;;;5059179;28;20089;-81
2021/01/20 18:01:36;;;;;;;21.38;13.85;;;;;;;;;;5056553;28;19921;-81
2021/01/20 18:04:02;;;;;;;20.42;11.13;;;;;;;;;;5060433;28;20028;-81
2021/01/20 18:06:28;;;;;;;20.75;13.13;;;;;;;;;;5066796;28;20024;-81
2021/01/20 18:08:53;;;;;;;21.25;12.95;;;;;;;;;;5060143;28;20107;-83
2021/01/20 18:11:19;;;;;;;22.05;13.90;;;;;;;;;;5057342;22;20005;-81
2021/01/20 18:13:45;;;;;;;46.45;29.35;;;;;;;;;;5060534;28;20031;-83
2021/01/20 18:18:30;;;;;;;38.13;23.83;;;;;;;;;;5082122;28;20398;-83
2021/01/20 18:20:56;;;;;;;29.95;19.75;;;;;;;;;;5064798;28;20174;-83
2021/01/20 18:23:21;;;;;;;22.77;15.10;;;;;;;;;;5059170;28;20428;-83
2021/01/20 18:25:47;;;;;;;24.30;14.48;;;;;;;;;;5080016;28;20028;-82
2021/01/20 18:28:12;;;;;;;22.83;12.80;;;;;;;;;;5078121;28;20024;-84
2021/01/20 18:30:38;;;;;;;20.55;12.70;;;;;;;;;;5086277;28;19916;-84
2021/01/20 18:33:04;;;;;;;22.73;13.20;;;;;;;;;;5062532;28;20572;-83
2021/01/20 18:41:41;;;;;;;24.67;14.32;;;;;;;;;;5003750;28;20449;-83
2021/01/20 18:47:35;;;;;;;31.70;20.38;;;;;;;;;;4983766;28;20093;-83
2021/01/20 18:50:46;;;;;;;34.75;17.67;;;;;;;;;;4929185;28;20031;-82
2021/01/20 19:15:41;;;;;;;52.83;28.15;;;;;;;;;;5120170;27;20434;-83
2021/01/20 19:18:06;;;;;;;54.83;27.60;;;;;;;;;;5117585;28;20035;-81
2021/01/20 19:20:32;;;;;;;66.63;30.27;;;;;;;;;;5113965;28;20033;-82
2021/01/20 19:22:58;;;;;;;66.38;30.40;;;;;;;;;;5105962;28;20032;-82
2021/01/20 19:25:23;;;;;;;62.55;30.33;;;;;;;;;;5110576;28;20481;-82
2021/01/20 19:27:49;;;;;;;63.40;31.65;;;;;;;;;;5110232;28;20397;-82
2021/01/20 19:30:15;;;;;;;72.10;35.95;;;;;;;;;;5115254;28;20020;-82
2021/01/20 19:32:41;;;;;;;78.97;39.72;;;;;;;;;;5116998;28;20077;-82
2021/01/20 19:35:07;;;;;;;109.93;57.58;;;;;;;;;;5113788;28;20035;-83
2021/01/20 19:37:33;;;;;;;89.18;43.72;;;;;;;;;;5115341;28;20389;-81
2021/01/20 19:39:59;;;;;;;75.88;40.63;;;;;;;;;;5117832;27;20027;-82
2021/01/20 19:42:24;;;;;;;80.95;42.97;;;;;;;;;;5116406;28;20468;-82
2021/01/20 19:44:50;;;;;;;72.18;37.28;;;;;;;;;;5111382;28;20817;-82
2021/01/20 19:47:16;;;;;;;83.18;43.28;;;;;;;;;;5116714;28;20641;-82
2021/01/20 19:49:41;;;;;;;78.65;38.35;;;;;;;;;;5116897;28;20042;-81
2021/01/20 19:52:07;;;;;;;73.60;37.70;;;;;;;;;;5113240;28;20031;-82
2021/01/20 19:54:33;;;;;;;79.38;38.88;;;;;;;;;;5111172;28;20023;-81
2021/01/20 19:56:58;;;;;;;75.90;39.13;;;;;;;;;;5110858;28;20020;-85
2021/01/20 19:59:24;;;;;;;67.65;35.92;;;;;;;;;;5115812;28;20496;-82
2021/01/20 20:01:50;;;;;;;65.15;34.92;;;;;;;;;;5109296;27;20107;-83
2021/01/20 20:04:15;;;;;;;73.30;35.53;;;;;;;;;;5112190;28;20110;-83
2021/01/20 20:06:42;;;;;;;67.80;35.97;;;;;;;;;;5109900;28;20031;-83
2021/01/20 20:09:07;;;;;;;72.95;39.00;;;;;;;;;;5109982;28;20084;-82
2021/01/20 20:11:33;;;;;;;67.00;36.50;;;;;;;;;;5114250;28;20265;-82
2021/01/20 20:13:59;;;;;;;74.13;37.47;;;;;;;;;;5108851;28;20023;-82
2021/01/20 20:16:25;;;;;;;100.95;49.97;;;;;;;;;;5104121;28;20076;-82
2021/01/20 20:18:50;;;;;;;101.13;51.75;;;;;;;;;;5100596;28;20101;-82
2021/01/20 20:21:16;;;;;;;93.53;49.63;;;;;;;;;;5098812;28;20032;-83
2021/01/20 20:23:42;;;;;;;93.15;48.55;;;;;;;;;;5096667;28;20651;-82
2021/01/20 20:26:08;;;;;;;81.30;44.45;;;;;;;;;;5097053;28;20056;-82
2021/01/20 20:28:33;;;;;;;81.70;44.28;;;;;;;;;;5099703;28;20019;-82
2021/01/20 20:30:59;;;;;;;70.90;40.03;;;;;;;;;;5099072;28;20022;-82
2021/01/20 20:33:25;;;;;;;72.38;40.45;;;;;;;;;;5097271;28;20054;-82
2021/01/20 20:35:51;;;;;;;62.35;36.42;;;;;;;;;;5096849;28;20027;-82
2021/01/20 20:38:17;;;;;;;64.03;34.75;;;;;;;;;;5096449;28;20023;-82
2021/01/20 20:40:43;;;;;;;63.45;33.97;;;;;;;;;;5098985;28;20059;-82
2021/01/20 20:43:09;;;;;;;71.40;38.60;;;;;;;;;;5096734;28;20103;-82
2021/01/20 20:45:34;;;;;;;54.53;33.70;;;;;;;;;;5095761;28;20027;-82
2021/01/20 20:48:02;;;;;;;65.07;38.08;;;;;;;;;;5093317;28;20079;-82
2021/01/20 20:50:28;;;;;;;55.10;31.80;;;;;;;;;;5097280;28;20059;-82
2021/01/20 20:55:12;;;;;;;56.00;32.55;;;;;;;;;;5090296;27;20441;-83
2021/01/20 20:57:38;;;;;;;61.58;33.22;;;;;;;;;;5080747;28;20504;-83
2021/01/20 21:00:05;;;;;;;54.72;32.38;;;;;;;;;;5089680;28;20024;-83
2021/01/20 21:02:31;;;;;;;48.75;28.20;;;;;;;;;;5086069;28;20029;-82
2021/01/20 21:04:57;;;;;;;39.58;22.38;;;;;;;;;;5082440;28;20491;-85
2021/01/20 21:07:25;;;;;;;36.70;22.20;;;;;;;;;;5083990;28;20035;-85
2021/01/20 21:09:51;;;;;;;37.30;21.13;;;;;;;;;;5084454;28;20012;-85
2021/01/20 21:12:17;;;;;;;34.95;19.98;;;;;;;;;;5082835;28;20024;-85
2021/01/20 21:14:42;;;;;;;33.95;22.00;;;;;;;;;;5081776;28;20020;-85
2021/01/20 21:17:10;;;;;;;32.20;19.92;;;;;;;;;;5087525;28;20396;-85
2021/01/20 21:19:35;;;;;;;29.35;19.27;;;;;;;;;;5090091;28;20078;-84